sensor_id;sensor_type;location;lat;lon;timestamp;temperature;humidity
15386;DHT22;7791;47.246;9.648;2023-07-22T00:01:54;17.20;99.90
15386;DHT22;7791;47.246;9.648;2023-07-22T00:04:25;17.30;99.90
15386;DHT22;7791;47.246;9.648;2023-07-22T00:07:16;17.30;99.90
15386;DHT22;7791;47.246;9.648;2023-07-22T00:09:49;17.30;99.90
15386;DHT22;7791;47.246;9.648;2023-07-22T00:12:27;17.20;99.90
15386;DHT22;7791;47.246;9.648;2023-07-22T00:15:03;17.20;99.90
15386;DHT22;7791;47.246;9.648;2023-07-22T00:17:36;17.30;99.90
15386;DHT22;7791;47.246;9.648;2023-07-22T00:20:18;17.30;99.90
15386;DHT22;7791;47.246;9.648;2023-07-22T00:22:52;17.30;99.90
15386;DHT22;7791;47.246;9.648;2023-07-22T00:25:29;17.30;99.90
15386;DHT22;7791;47.246;9.648;2023-07-22T00:30:45;17.30;99.90
15386;DHT22;7791;47.246;9.648;2023-07-22T00:33:37;17.30;99.90
15386;DHT22;7791;47.246;9.648;2023-07-22T00:36:08;17.30;99.90
15386;DHT22;7791;47.246;9.648;2023-07-22T00:38:40;17.20;99.90
15386;DHT22;7791;47.246;9.648;2023-07-22T00:41:15;17.10;99.90
15386;DHT22;7791;47.246;9.648;2023-07-22T00:44:01;17.10;99.90
15386;DHT22;7791;47.246;9.648;2023-07-22T00:46:54;17.00;99.90
15386;DHT22;7791;47.246;9.648;2023-07-22T00:49:30;16.80;99.90
15386;DHT22;7791;47.246;9.648;2023-07-22T00:52:03;16.60;99.90
15386;DHT22;7791;47.246;9.648;2023-07-22T00:54:38;16.50;99.90
15386;DHT22;7791;47.246;9.648;2023-07-22T00:57:17;16.40;99.90
15386;DHT22;7791;47.246;9.648;2023-07-22T01:00:04;16.60;99.90
15386;DHT22;7791;47.246;9.648;2023-07-22T01:02:49;16.70;99.90
15386;DHT22;7791;47.246;9.648;2023-07-22T01:08:48;16.70;99.90
15386;DHT22;7791;47.246;9.648;2023-07-22T01:11:36;16.70;99.90
15386;DHT22;7791;47.246;9.648;2023-07-22T01:14:08;16.70;99.90
15386;DHT22;7791;47.246;9.648;2023-07-22T01:16:47;16.80;99.90
15386;DHT22;7791;47.246;9.648;2023-07-22T01:19:35;16.80;99.90
15386;DHT22;7791;47.246;9.648;2023-07-22T01:22:13;16.80;99.90
15386;DHT22;7791;47.246;9.648;2023-07-22T01:24:51;16.90;99.90
15386;DHT22;7791;47.246;9.648;2023-07-22T01:27:34;16.90;99.90
15386;DHT22;7791;47.246;9.648;2023-07-22T01:30:27;16.90;99.90
15386;DHT22;7791;47.246;9.648;2023-07-22T01:33:15;16.90;99.90
15386;DHT22;7791;47.246;9.648;2023-07-22T01:35:50;16.70;99.90
15386;DHT22;7791;47.246;9.648;2023-07-22T01:38:29;16.60;99.90
15386;DHT22;7791;47.246;9.648;2023-07-22T01:44:15;16.60;99.90
15386;DHT22;7791;47.246;9.648;2023-07-22T01:46:53;16.40;99.90
15386;DHT22;7791;47.246;9.648;2023-07-22T01:49:27;16.40;99.90
15386;DHT22;7791;47.246;9.648;2023-07-22T01:51:59;16.40;99.90
15386;DHT22;7791;47.246;9.648;2023-07-22T01:57:17;16.50;99.90
15386;DHT22;7791;47.246;9.648;2023-07-22T01:59:44;16.50;99.90
15386;DHT22;7791;47.246;9.648;2023-07-22T02:02:31;16.60;99.90
15386;DHT22;7791;47.246;9.648;2023-07-22T02:05:10;16.60;99.90
15386;DHT22;7791;47.246;9.648;2023-07-22T02:07:44;16.70;99.90
15386;DHT22;7791;47.246;9.648;2023-07-22T02:10:24;16.70;99.90
15386;DHT22;7791;47.246;9.648;2023-07-22T02:13:03;16.70;99.90
15386;DHT22;7791;47.246;9.648;2023-07-22T02:15:49;16.60;99.90
15386;DHT22;7791;47.246;9.648;2023-07-22T02:18:21;16.60;99.90
15386;DHT22;7791;47.246;9.648;2023-07-22T02:21:18;16.50;99.90
15386;DHT22;7791;47.246;9.648;2023-07-22T02:24:14;16.50;99.90
15386;DHT22;7791;47.246;9.648;2023-07-22T02:26:56;16.50;99.90
15386;DHT22;7791;47.246;9.648;2023-07-22T02:29:42;16.50;99.90
15386;DHT22;7791;47.246;9.648;2023-07-22T02:32:21;16.40;99.90
15386;DHT22;7791;47.246;9.648;2023-07-22T02:34:58;16.40;99.90
15386;DHT22;7791;47.246;9.648;2023-07-22T02:37:34;16.50;99.90
15386;DHT22;7791;47.246;9.648;2023-07-22T02:40:10;16.40;99.90
15386;DHT22;7791;47.246;9.648;2023-07-22T02:45:52;16.40;99.90
15386;DHT22;7791;47.246;9.648;2023-07-22T02:48:52;16.50;99.90
15386;DHT22;7791;47.246;9.648;2023-07-22T02:51:34;16.50;99.90
15386;DHT22;7791;47.246;9.648;2023-07-22T02:54:09;16.50;99.90
15386;DHT22;7791;47.246;9.648;2023-07-22T02:56:40;16.50;99.90
15386;DHT22;7791;47.246;9.648;2023-07-22T02:59:29;16.60;99.90
15386;DHT22;7791;47.246;9.648;2023-07-22T03:02:15;16.50;99.90
15386;DHT22;7791;47.246;9.648;2023-07-22T03:04:58;16.30;99.90
15386;DHT22;7791;47.246;9.648;2023-07-22T03:07:39;16.10;99.90
15386;DHT22;7791;47.246;9.648;2023-07-22T03:10:18;16.00;99.90
15386;DHT22;7791;47.246;9.648;2023-07-22T03:12:57;16.20;99.90
15386;DHT22;7791;47.246;9.648;2023-07-22T03:15:40;16.20;99.90
15386;DHT22;7791;47.246;9.648;2023-07-22T03:20:58;16.50;99.90
15386;DHT22;7791;47.246;9.648;2023-07-22T03:23:42;16.60;99.90
15386;DHT22;7791;47.246;9.648;2023-07-22T03:26:17;16.60;99.90
15386;DHT22;7791;47.246;9.648;2023-07-22T03:28:48;16.60;99.90
15386;DHT22;7791;47.246;9.648;2023-07-22T03:31:34;16.60;99.90
15386;DHT22;7791;47.246;9.648;2023-07-22T03:34:10;16.60;99.90
15386;DHT22;7791;47.246;9.648;2023-07-22T03:36:56;16.60;99.90
15386;DHT22;7791;47.246;9.648;2023-07-22T03:42:26;16.60;99.90
15386;DHT22;7791;47.246;9.648;2023-07-22T03:45:01;16.50;99.90
15386;DHT22;7791;47.246;9.648;2023-07-22T03:47:38;16.30;99.90
15386;DHT22;7791;47.246;9.648;2023-07-22T03:50:12;16.30;99.90
15386;DHT22;7791;47.246;9.648;2023-07-22T03:52:52;16.30;99.90
15386;DHT22;7791;47.246;9.648;2023-07-22T03:55:47;16.40;99.90
15386;DHT22;7791;47.246;9.648;2023-07-22T03:58:30;16.40;99.90
15386;DHT22;7791;47.246;9.648;2023-07-22T04:01:28;16.50;99.90
15386;DHT22;7791;47.246;9.648;2023-07-22T04:04:22;16.50;99.90
15386;DHT22;7791;47.246;9.648;2023-07-22T04:09:43;16.60;99.90
15386;DHT22;7791;47.246;9.648;2023-07-22T04:15:28;16.80;99.90
15386;DHT22;7791;47.246;9.648;2023-07-22T04:18:03;16.80;99.90
15386;DHT22;7791;47.246;9.648;2023-07-22T04:20:38;16.80;99.90
15386;DHT22;7791;47.246;9.648;2023-07-22T04:23:09;16.80;99.90
15386;DHT22;7791;47.246;9.648;2023-07-22T04:28:43;16.80;99.90
15386;DHT22;7791;47.246;9.648;2023-07-22T04:31:44;16.80;99.90
15386;DHT22;7791;47.246;9.648;2023-07-22T04:34:36;16.90;99.90
15386;DHT22;7791;47.246;9.648;2023-07-22T04:40:08;16.90;99.90
15386;DHT22;7791;47.246;9.648;2023-07-22T04:45:40;17.10;99.90
15386;DHT22;7791;47.246;9.648;2023-07-22T04:48:30;17.10;99.90
15386;DHT22;7791;47.246;9.648;2023-07-22T04:51:17;17.20;99.90
15386;DHT22;7791;47.246;9.648;2023-07-22T04:56:50;17.40;99.90
15386;DHT22;7791;47.246;9.648;2023-07-22T04:59:29;17.50;99.90
15386;DHT22;7791;47.246;9.648;2023-07-22T05:02:06;17.50;99.90
15386;DHT22;7791;47.246;9.648;2023-07-22T05:04:42;17.70;99.90
15386;DHT22;7791;47.246;9.648;2023-07-22T05:07:31;17.70;99.90
15386;DHT22;7791;47.246;9.648;2023-07-22T05:10:03;17.70;99.90
15386;DHT22;7791;47.246;9.648;2023-07-22T05:12:47;17.60;99.90
15386;DHT22;7791;47.246;9.648;2023-07-22T05:15:23;17.60;99.90
15386;DHT22;7791;47.246;9.648;2023-07-22T05:17:55;17.70;99.90
15386;DHT22;7791;47.246;9.648;2023-07-22T05:20:40;17.70;99.90
15386;DHT22;7791;47.246;9.648;2023-07-22T05:23:19;17.80;99.90
15386;DHT22;7791;47.246;9.648;2023-07-22T05:25:55;17.90;99.90
15386;DHT22;7791;47.246;9.648;2023-07-22T05:31:36;18.10;99.90
15386;DHT22;7791;47.246;9.648;2023-07-22T05:34:10;18.20;99.90
15386;DHT22;7791;47.246;9.648;2023-07-22T05:36:43;18.20;99.90
15386;DHT22;7791;47.246;9.648;2023-07-22T05:39:39;18.40;99.90
15386;DHT22;7791;47.246;9.648;2023-07-22T05:42:20;18.50;99.90
15386;DHT22;7791;47.246;9.648;2023-07-22T05:45:07;18.60;99.90
15386;DHT22;7791;47.246;9.648;2023-07-22T05:47:33;18.60;99.90
15386;DHT22;7791;47.246;9.648;2023-07-22T05:49:59;18.60;99.90
15386;DHT22;7791;47.246;9.648;2023-07-22T05:52:51;18.70;99.90
15386;DHT22;7791;47.246;9.648;2023-07-22T05:55:32;18.90;99.90
15386;DHT22;7791;47.246;9.648;2023-07-22T05:58:15;19.00;99.90
15386;DHT22;7791;47.246;9.648;2023-07-22T06:01:12;19.00;99.90
15386;DHT22;7791;47.246;9.648;2023-07-22T06:03:54;19.10;99.90
15386;DHT22;7791;47.246;9.648;2023-07-22T06:06:40;19.20;99.90
15386;DHT22;7791;47.246;9.648;2023-07-22T06:09:23;19.20;99.90
15386;DHT22;7791;47.246;9.648;2023-07-22T06:12:11;19.30;99.90
15386;DHT22;7791;47.246;9.648;2023-07-22T06:14:49;19.50;99.90
15386;DHT22;7791;47.246;9.648;2023-07-22T06:17:29;19.50;99.90
15386;DHT22;7791;47.246;9.648;2023-07-22T06:23:04;19.70;99.90
15386;DHT22;7791;47.246;9.648;2023-07-22T06:25:39;20.10;99.90
15386;DHT22;7791;47.246;9.648;2023-07-22T06:28:19;20.20;99.90
15386;DHT22;7791;47.246;9.648;2023-07-22T06:30:57;20.40;99.90
15386;DHT22;7791;47.246;9.648;2023-07-22T06:33:38;20.40;99.90
15386;DHT22;7791;47.246;9.648;2023-07-22T06:36:24;20.30;99.90
15386;DHT22;7791;47.246;9.648;2023-07-22T06:38:55;20.50;99.90
15386;DHT22;7791;47.246;9.648;2023-07-22T06:41:24;20.60;99.90
15386;DHT22;7791;47.246;9.648;2023-07-22T06:46:56;20.90;99.90
15386;DHT22;7791;47.246;9.648;2023-07-22T06:49:39;21.80;99.90
15386;DHT22;7791;47.246;9.648;2023-07-22T06:52:25;23.10;99.90
15386;DHT22;7791;47.246;9.648;2023-07-22T06:55:00;23.50;99.90
15386;DHT22;7791;47.246;9.648;2023-07-22T07:00:32;23.90;99.90
15386;DHT22;7791;47.246;9.648;2023-07-22T07:03:01;23.90;99.90
15386;DHT22;7791;47.246;9.648;2023-07-22T07:05:39;23.70;99.90
15386;DHT22;7791;47.246;9.648;2023-07-22T07:08:16;23.80;99.90
15386;DHT22;7791;47.246;9.648;2023-07-22T07:10:51;24.30;99.90
15386;DHT22;7791;47.246;9.648;2023-07-22T07:13:39;24.20;99.90
15386;DHT22;7791;47.246;9.648;2023-07-22T07:16:46;24.00;99.90
15386;DHT22;7791;47.246;9.648;2023-07-22T07:19:25;24.60;99.90
15386;DHT22;7791;47.246;9.648;2023-07-22T07:22:04;24.90;99.90
15386;DHT22;7791;47.246;9.648;2023-07-22T07:27:50;23.90;99.90
15386;DHT22;7791;47.246;9.648;2023-07-22T07:30:26;25.00;99.90
15386;DHT22;7791;47.246;9.648;2023-07-22T07:36:03;27.30;99.90
15386;DHT22;7791;47.246;9.648;2023-07-22T07:38:49;27.40;99.90
15386;DHT22;7791;47.246;9.648;2023-07-22T07:44:21;27.50;99.90
15386;DHT22;7791;47.246;9.648;2023-07-22T07:47:07;27.30;99.90
15386;DHT22;7791;47.246;9.648;2023-07-22T07:49:49;26.80;99.90
15386;DHT22;7791;47.246;9.648;2023-07-22T07:55:23;24.60;99.90
15386;DHT22;7791;47.246;9.648;2023-07-22T07:58:03;24.20;99.90
15386;DHT22;7791;47.246;9.648;2023-07-22T08:00:34;24.60;99.90
15386;DHT22;7791;47.246;9.648;2023-07-22T08:03:03;24.90;99.90
15386;DHT22;7791;47.246;9.648;2023-07-22T08:05:58;24.70;99.90
15386;DHT22;7791;47.246;9.648;2023-07-22T08:08:45;24.40;99.90
15386;DHT22;7791;47.246;9.648;2023-07-22T08:11:31;23.90;99.90
15386;DHT22;7791;47.246;9.648;2023-07-22T08:14:03;23.70;99.90
15386;DHT22;7791;47.246;9.648;2023-07-22T08:19:27;24.90;99.90
15386;DHT22;7791;47.246;9.648;2023-07-22T08:22:02;25.20;99.90
15386;DHT22;7791;47.246;9.648;2023-07-22T08:24:39;25.40;99.90
15386;DHT22;7791;47.246;9.648;2023-07-22T08:27:10;25.40;99.90
15386;DHT22;7791;47.246;9.648;2023-07-22T08:30:02;25.50;99.90
15386;DHT22;7791;47.246;9.648;2023-07-22T08:32:43;25.70;99.90
15386;DHT22;7791;47.246;9.648;2023-07-22T08:38:13;24.40;99.90
15386;DHT22;7791;47.246;9.648;2023-07-22T08:41:05;24.60;99.90
15386;DHT22;7791;47.246;9.648;2023-07-22T08:43:54;25.20;99.90
15386;DHT22;7791;47.246;9.648;2023-07-22T08:46:38;26.30;99.90
15386;DHT22;7791;47.246;9.648;2023-07-22T08:49:37;26.70;99.90
15386;DHT22;7791;47.246;9.648;2023-07-22T08:52:36;27.00;99.90
15386;DHT22;7791;47.246;9.648;2023-07-22T08:55:03;27.00;99.90
15386;DHT22;7791;47.246;9.648;2023-07-22T08:57:41;27.40;99.90
15386;DHT22;7791;47.246;9.648;2023-07-22T09:00:13;28.50;99.90
15386;DHT22;7791;47.246;9.648;2023-07-22T09:05:49;27.50;99.90
15386;DHT22;7791;47.246;9.648;2023-07-22T09:08:22;27.50;99.90
15386;DHT22;7791;47.246;9.648;2023-07-22T09:11:03;28.20;99.90
15386;DHT22;7791;47.246;9.648;2023-07-22T09:13:52;28.30;99.90
15386;DHT22;7791;47.246;9.648;2023-07-22T09:16:39;27.80;99.90
15386;DHT22;7791;47.246;9.648;2023-07-22T09:22:09;28.20;99.90
15386;DHT22;7791;47.246;9.648;2023-07-22T09:24:42;27.80;99.90
15386;DHT22;7791;47.246;9.648;2023-07-22T09:27:35;27.10;99.90
15386;DHT22;7791;47.246;9.648;2023-07-22T09:30:37;26.80;99.90
15386;DHT22;7791;47.246;9.648;2023-07-22T09:33:35;27.10;99.90
15386;DHT22;7791;47.246;9.648;2023-07-22T09:36:12;27.70;99.90
15386;DHT22;7791;47.246;9.648;2023-07-22T09:39:03;27.20;99.90
15386;DHT22;7791;47.246;9.648;2023-07-22T09:45:04;27.30;99.90
15386;DHT22;7791;47.246;9.648;2023-07-22T09:53:42;28.40;99.90
15386;DHT22;7791;47.246;9.648;2023-07-22T09:59:10;29.40;98.10
15386;DHT22;7791;47.246;9.648;2023-07-22T10:02:00;29.40;97.60
15386;DHT22;7791;47.246;9.648;2023-07-22T10:04:38;29.90;98.00
15386;DHT22;7791;47.246;9.648;2023-07-22T10:07:19;29.70;96.50
15386;DHT22;7791;47.246;9.648;2023-07-22T10:09:56;29.70;97.30
15386;DHT22;7791;47.246;9.648;2023-07-22T10:12:32;30.00;96.80
15386;DHT22;7791;47.246;9.648;2023-07-22T10:18:06;30.60;95.40
15386;DHT22;7791;47.246;9.648;2023-07-22T10:20:48;32.10;92.60
15386;DHT22;7791;47.246;9.648;2023-07-22T10:26:18;32.00;92.70
15386;DHT22;7791;47.246;9.648;2023-07-22T10:28:54;30.50;93.50
15386;DHT22;7791;47.246;9.648;2023-07-22T10:31:34;30.30;93.00
15386;DHT22;7791;47.246;9.648;2023-07-22T10:34:17;29.70;93.90
15386;DHT22;7791;47.246;9.648;2023-07-22T10:36:56;29.40;93.40
15386;DHT22;7791;47.246;9.648;2023-07-22T10:39:54;29.80;93.30
15386;DHT22;7791;47.246;9.648;2023-07-22T10:42:40;30.20;94.20
15386;DHT22;7791;47.246;9.648;2023-07-22T10:45:32;29.30;94.40
15386;DHT22;7791;47.246;9.648;2023-07-22T10:48:24;28.90;92.70
15386;DHT22;7791;47.246;9.648;2023-07-22T10:51:20;29.20;94.30
15386;DHT22;7791;47.246;9.648;2023-07-22T10:53:55;28.70;94.60
15386;DHT22;7791;47.246;9.648;2023-07-22T10:56:49;28.80;94.20
15386;DHT22;7791;47.246;9.648;2023-07-22T10:59:29;29.50;94.50
15386;DHT22;7791;47.246;9.648;2023-07-22T11:02:24;30.80;92.80
15386;DHT22;7791;47.246;9.648;2023-07-22T11:05:13;32.80;90.60
15386;DHT22;7791;47.246;9.648;2023-07-22T11:07:43;32.60;90.60
15386;DHT22;7791;47.246;9.648;2023-07-22T11:10:32;30.60;91.80
15386;DHT22;7791;47.246;9.648;2023-07-22T11:13:08;29.30;91.20
15386;DHT22;7791;47.246;9.648;2023-07-22T11:15:54;29.30;93.70
15386;DHT22;7791;47.246;9.648;2023-07-22T11:18:58;29.60;91.70
15386;DHT22;7791;47.246;9.648;2023-07-22T11:21:38;29.70;94.10
15386;DHT22;7791;47.246;9.648;2023-07-22T11:24:20;30.00;92.00
15386;DHT22;7791;47.246;9.648;2023-07-22T11:27:03;31.50;88.60
15386;DHT22;7791;47.246;9.648;2023-07-22T11:29:50;32.10;89.60
15386;DHT22;7791;47.246;9.648;2023-07-22T11:32:24;32.80;88.70
15386;DHT22;7791;47.246;9.648;2023-07-22T11:35:07;31.20;88.90
15386;DHT22;7791;47.246;9.648;2023-07-22T11:38:02;30.20;90.10
15386;DHT22;7791;47.246;9.648;2023-07-22T11:40:50;29.70;91.70
15386;DHT22;7791;47.246;9.648;2023-07-22T11:43:26;29.50;91.40
15386;DHT22;7791;47.246;9.648;2023-07-22T11:45:57;29.70;91.40
15386;DHT22;7791;47.246;9.648;2023-07-22T11:48:37;30.80;88.80
15386;DHT22;7791;47.246;9.648;2023-07-22T11:51:22;32.10;86.30
15386;DHT22;7791;47.246;9.648;2023-07-22T11:53:59;31.00;83.60
15386;DHT22;7791;47.246;9.648;2023-07-22T11:56:46;30.50;89.70
15386;DHT22;7791;47.246;9.648;2023-07-22T12:05:03;30.80;86.30
15386;DHT22;7791;47.246;9.648;2023-07-22T12:07:49;30.30;89.30
15386;DHT22;7791;47.246;9.648;2023-07-22T12:10:36;30.90;87.60
15386;DHT22;7791;47.246;9.648;2023-07-22T12:13:02;31.10;87.00
15386;DHT22;7791;47.246;9.648;2023-07-22T12:15:33;30.90;87.60
15386;DHT22;7791;47.246;9.648;2023-07-22T12:18:18;30.10;89.70
15386;DHT22;7791;47.246;9.648;2023-07-22T12:20:53;28.90;88.30
15386;DHT22;7791;47.246;9.648;2023-07-22T12:23:32;28.80;91.10
15386;DHT22;7791;47.246;9.648;2023-07-22T12:28:53;30.20;88.20
15386;DHT22;7791;47.246;9.648;2023-07-22T12:31:29;30.60;85.30
15386;DHT22;7791;47.246;9.648;2023-07-22T12:34:26;31.00;86.50
15386;DHT22;7791;47.246;9.648;2023-07-22T12:37:02;30.80;85.70
15386;DHT22;7791;47.246;9.648;2023-07-22T12:39:28;30.60;86.70
15386;DHT22;7791;47.246;9.648;2023-07-22T12:42:01;30.80;84.50
15386;DHT22;7791;47.246;9.648;2023-07-22T12:44:42;31.00;84.30
15386;DHT22;7791;47.246;9.648;2023-07-22T12:47:38;30.50;80.60
15386;DHT22;7791;47.246;9.648;2023-07-22T12:50:08;31.40;83.80
15386;DHT22;7791;47.246;9.648;2023-07-22T12:52:45;33.00;80.70
15386;DHT22;7791;47.246;9.648;2023-07-22T12:55:22;33.50;77.60
15386;DHT22;7791;47.246;9.648;2023-07-22T12:58:19;33.70;78.50
15386;DHT22;7791;47.246;9.648;2023-07-22T13:01:01;32.60;77.50
15386;DHT22;7791;47.246;9.648;2023-07-22T13:03:39;33.10;81.30
15386;DHT22;7791;47.246;9.648;2023-07-22T13:06:18;32.40;81.30
15386;DHT22;7791;47.246;9.648;2023-07-22T13:08:47;31.50;82.00
15386;DHT22;7791;47.246;9.648;2023-07-22T13:11:29;29.80;82.50
15386;DHT22;7791;47.246;9.648;2023-07-22T13:14:05;29.80;82.70
15386;DHT22;7791;47.246;9.648;2023-07-22T13:16:35;31.10;82.50
15386;DHT22;7791;47.246;9.648;2023-07-22T13:19:18;31.80;81.80
15386;DHT22;7791;47.246;9.648;2023-07-22T13:24:52;30.90;79.60
15386;DHT22;7791;47.246;9.648;2023-07-22T13:27:25;31.90;79.80
15386;DHT22;7791;47.246;9.648;2023-07-22T13:30:04;32.50;80.10
15386;DHT22;7791;47.246;9.648;2023-07-22T13:32:45;32.90;78.30
15386;DHT22;7791;47.246;9.648;2023-07-22T13:44:01;30.00;83.70
15386;DHT22;7791;47.246;9.648;2023-07-22T13:46:39;29.30;85.00
15386;DHT22;7791;47.246;9.648;2023-07-22T13:49:19;28.60;88.80
15386;DHT22;7791;47.246;9.648;2023-07-22T13:52:05;28.70;86.90
15386;DHT22;7791;47.246;9.648;2023-07-22T13:54:35;29.40;86.90
15386;DHT22;7791;47.246;9.648;2023-07-22T13:57:17;29.90;84.60
15386;DHT22;7791;47.246;9.648;2023-07-22T14:00:13;30.00;84.30
15386;DHT22;7791;47.246;9.648;2023-07-22T14:05:45;30.20;81.20
15386;DHT22;7791;47.246;9.648;2023-07-22T14:11:20;29.20;84.50
15386;DHT22;7791;47.246;9.648;2023-07-22T14:14:05;30.20;86.40
15386;DHT22;7791;47.246;9.648;2023-07-22T14:16:44;30.00;83.60
15386;DHT22;7791;47.246;9.648;2023-07-22T14:22:01;28.40;87.50
15386;DHT22;7791;47.246;9.648;2023-07-22T14:24:43;28.30;87.20
15386;DHT22;7791;47.246;9.648;2023-07-22T14:27:25;28.10;87.90
15386;DHT22;7791;47.246;9.648;2023-07-22T14:30:01;27.50;90.10
15386;DHT22;7791;47.246;9.648;2023-07-22T14:35:59;27.60;88.20
15386;DHT22;7791;47.246;9.648;2023-07-22T14:38:49;28.10;88.30
15386;DHT22;7791;47.246;9.648;2023-07-22T14:41:21;27.90;88.90
15386;DHT22;7791;47.246;9.648;2023-07-22T14:44:18;28.30;90.00
15386;DHT22;7791;47.246;9.648;2023-07-22T14:46:50;28.50;89.30
15386;DHT22;7791;47.246;9.648;2023-07-22T14:49:20;29.10;91.20
15386;DHT22;7791;47.246;9.648;2023-07-22T14:51:52;29.30;87.20
15386;DHT22;7791;47.246;9.648;2023-07-22T14:54:53;29.00;87.70
15386;DHT22;7791;47.246;9.648;2023-07-22T15:00:30;28.70;89.60
15386;DHT22;7791;47.246;9.648;2023-07-22T15:03:05;28.20;89.60
15386;DHT22;7791;47.246;9.648;2023-07-22T15:05:46;27.90;88.10
15386;DHT22;7791;47.246;9.648;2023-07-22T15:08:29;28.10;89.10
15386;DHT22;7791;47.246;9.648;2023-07-22T15:10:59;28.20;90.70
15386;DHT22;7791;47.246;9.648;2023-07-22T15:16:41;28.10;90.10
15386;DHT22;7791;47.246;9.648;2023-07-22T15:19:14;27.80;89.80
15386;DHT22;7791;47.246;9.648;2023-07-22T15:21:53;28.20;89.20
15386;DHT22;7791;47.246;9.648;2023-07-22T15:24:35;28.00;87.30
15386;DHT22;7791;47.246;9.648;2023-07-22T15:27:11;28.40;87.30
15386;DHT22;7791;47.246;9.648;2023-07-22T15:29:49;28.30;87.30
15386;DHT22;7791;47.246;9.648;2023-07-22T15:32:27;28.40;87.90
15386;DHT22;7791;47.246;9.648;2023-07-22T15:35:08;28.70;88.30
15386;DHT22;7791;47.246;9.648;2023-07-22T15:37:59;28.40;85.80
15386;DHT22;7791;47.246;9.648;2023-07-22T15:40:41;28.70;89.20
15386;DHT22;7791;47.246;9.648;2023-07-22T15:43:16;28.70;87.70
15386;DHT22;7791;47.246;9.648;2023-07-22T15:45:57;28.60;86.50
15386;DHT22;7791;47.246;9.648;2023-07-22T15:48:45;28.20;86.00
15386;DHT22;7791;47.246;9.648;2023-07-22T15:51:31;27.80;90.70
15386;DHT22;7791;47.246;9.648;2023-07-22T15:54:09;27.30;89.40
15386;DHT22;7791;47.246;9.648;2023-07-22T15:56:42;27.10;90.50
15386;DHT22;7791;47.246;9.648;2023-07-22T15:59:30;26.70;90.20
15386;DHT22;7791;47.246;9.648;2023-07-22T16:02:49;26.80;90.90
15386;DHT22;7791;47.246;9.648;2023-07-22T16:05:30;27.30;90.70
15386;DHT22;7791;47.246;9.648;2023-07-22T16:08:19;27.30;90.90
15386;DHT22;7791;47.246;9.648;2023-07-22T16:14:03;27.80;88.60
15386;DHT22;7791;47.246;9.648;2023-07-22T16:16:33;27.60;90.00
15386;DHT22;7791;47.246;9.648;2023-07-22T16:19:18;27.40;88.90
15386;DHT22;7791;47.246;9.648;2023-07-22T16:21:50;26.90;87.60
15386;DHT22;7791;47.246;9.648;2023-07-22T16:24:38;27.00;87.50
15386;DHT22;7791;47.246;9.648;2023-07-22T16:27:24;27.60;90.00
15386;DHT22;7791;47.246;9.648;2023-07-22T16:30:08;28.10;87.00
15386;DHT22;7791;47.246;9.648;2023-07-22T16:32:40;27.50;89.00
15386;DHT22;7791;47.246;9.648;2023-07-22T16:35:23;27.30;88.50
15386;DHT22;7791;47.246;9.648;2023-07-22T16:38:01;27.00;88.20
15386;DHT22;7791;47.246;9.648;2023-07-22T16:43:34;27.20;88.10
15386;DHT22;7791;47.246;9.648;2023-07-22T16:49:12;27.00;87.50
15386;DHT22;7791;47.246;9.648;2023-07-22T16:51:45;27.10;87.90
15386;DHT22;7791;47.246;9.648;2023-07-22T16:54:19;27.00;91.20
15386;DHT22;7791;47.246;9.648;2023-07-22T16:57:08;27.20;92.00
15386;DHT22;7791;47.246;9.648;2023-07-22T16:59:57;27.30;91.30
15386;DHT22;7791;47.246;9.648;2023-07-22T17:02:32;27.10;91.40
15386;DHT22;7791;47.246;9.648;2023-07-22T17:05:15;26.90;92.90
15386;DHT22;7791;47.246;9.648;2023-07-22T17:08:00;26.50;93.80
15386;DHT22;7791;47.246;9.648;2023-07-22T17:10:42;26.30;93.50
15386;DHT22;7791;47.246;9.648;2023-07-22T17:13:42;26.30;95.00
15386;DHT22;7791;47.246;9.648;2023-07-22T17:16:21;26.20;96.00
15386;DHT22;7791;47.246;9.648;2023-07-22T17:18:57;26.10;95.70
15386;DHT22;7791;47.246;9.648;2023-07-22T17:21:42;25.90;96.60
15386;DHT22;7791;47.246;9.648;2023-07-22T17:24:17;25.50;99.10
15386;DHT22;7791;47.246;9.648;2023-07-22T17:27:07;25.30;98.70
15386;DHT22;7791;47.246;9.648;2023-07-22T17:38:33;24.60;99.90
15386;DHT22;7791;47.246;9.648;2023-07-22T17:41:07;24.50;99.90
15386;DHT22;7791;47.246;9.648;2023-07-22T17:43:46;24.50;99.90
15386;DHT22;7791;47.246;9.648;2023-07-22T17:46:26;24.50;99.90
15386;DHT22;7791;47.246;9.648;2023-07-22T17:49:10;24.30;99.90
15386;DHT22;7791;47.246;9.648;2023-07-22T17:51:52;24.00;99.90
15386;DHT22;7791;47.246;9.648;2023-07-22T17:54:44;23.80;99.90
15386;DHT22;7791;47.246;9.648;2023-07-22T17:57:17;23.30;99.90
15386;DHT22;7791;47.246;9.648;2023-07-22T17:59:55;22.90;99.90
15386;DHT22;7791;47.246;9.648;2023-07-22T18:02:39;23.10;99.90
15386;DHT22;7791;47.246;9.648;2023-07-22T18:05:08;23.30;99.90
15386;DHT22;7791;47.246;9.648;2023-07-22T18:07:49;23.40;99.90
15386;DHT22;7791;47.246;9.648;2023-07-22T18:10:34;23.40;99.90
15386;DHT22;7791;47.246;9.648;2023-07-22T18:13:06;23.30;99.90
15386;DHT22;7791;47.246;9.648;2023-07-22T18:15:48;23.00;99.90
15386;DHT22;7791;47.246;9.648;2023-07-22T18:18:26;22.90;99.90
15386;DHT22;7791;47.246;9.648;2023-07-22T18:21:21;23.00;99.90
15386;DHT22;7791;47.246;9.648;2023-07-22T18:24:05;23.00;99.90
15386;DHT22;7791;47.246;9.648;2023-07-22T18:26:48;22.80;99.90
15386;DHT22;7791;47.246;9.648;2023-07-22T18:29:27;22.50;99.90
15386;DHT22;7791;47.246;9.648;2023-07-22T18:32:16;22.10;99.90
15386;DHT22;7791;47.246;9.648;2023-07-22T18:34:59;21.90;99.90
15386;DHT22;7791;47.246;9.648;2023-07-22T18:37:34;21.70;99.90
15386;DHT22;7791;47.246;9.648;2023-07-22T18:40:03;21.50;99.90
15386;DHT22;7791;47.246;9.648;2023-07-22T18:42:48;21.40;99.90
15386;DHT22;7791;47.246;9.648;2023-07-22T18:45:24;21.40;99.90
15386;DHT22;7791;47.246;9.648;2023-07-22T18:48:08;21.30;99.90
15386;DHT22;7791;47.246;9.648;2023-07-22T18:50:43;21.20;99.90
15386;DHT22;7791;47.246;9.648;2023-07-22T18:53:20;21.20;99.90
15386;DHT22;7791;47.246;9.648;2023-07-22T18:59:05;20.80;99.90
15386;DHT22;7791;47.246;9.648;2023-07-22T19:02:02;20.70;99.90
15386;DHT22;7791;47.246;9.648;2023-07-22T19:04:43;20.70;99.90
15386;DHT22;7791;47.246;9.648;2023-07-22T19:07:25;20.50;99.90
15386;DHT22;7791;47.246;9.648;2023-07-22T19:10:03;20.20;99.90
15386;DHT22;7791;47.246;9.648;2023-07-22T19:18:12;19.70;99.90
15386;DHT22;7791;47.246;9.648;2023-07-22T19:20:56;19.60;99.90
15386;DHT22;7791;47.246;9.648;2023-07-22T19:23:29;19.60;99.90
15386;DHT22;7791;47.246;9.648;2023-07-22T19:26:09;19.40;99.90
15386;DHT22;7791;47.246;9.648;2023-07-22T19:28:47;19.10;99.90
15386;DHT22;7791;47.246;9.648;2023-07-22T19:31:23;18.90;99.90
15386;DHT22;7791;47.246;9.648;2023-07-22T19:34:08;18.80;99.90
15386;DHT22;7791;47.246;9.648;2023-07-22T19:36:47;18.70;99.90
15386;DHT22;7791;47.246;9.648;2023-07-22T19:39:37;18.60;99.90
15386;DHT22;7791;47.246;9.648;2023-07-22T19:42:10;18.60;99.90
15386;DHT22;7791;47.246;9.648;2023-07-22T19:44:52;18.80;99.90
15386;DHT22;7791;47.246;9.648;2023-07-22T19:47:29;18.90;99.90